Anzahl Datensätze: 143
min. Temperatur: 3.5 °C
max. Temperatur: 12.6 °C
max. Windgeschwindigkeit: 11.2 km/h
Niederschlagsumme: 0.0 mm
| Datum |
Zeit |
Temp °C |
Feuchte % |
Taupunkt °C |
Luftdruck hPa |
Wind km/h |
Windrichtung |
Strahlung w/m² |
Niederschlag mm |
|---|---|---|---|---|---|---|---|---|---|
| 19.10.2025 | 00:05 | 4.9 | 88 | 3.1 | 1022.1 | 0.4 | NO | 0 | 0.0 |
| 19.10.2025 | 00:15 | 4.6 | 89 | 3.0 | 1022.2 | 1.4 | ONO | 0 | 0.0 |
| 19.10.2025 | 00:25 | 5.0 | 88 | 3.2 | 1022.2 | 1.8 | NO | 0 | 0.0 |
| 19.10.2025 | 00:35 | 4.9 | 87 | 3.0 | 1022.0 | 1.1 | N | 0 | 0.0 |
| 19.10.2025 | 00:45 | 4.8 | 89 | 3.1 | 1022.2 | 3.2 | N | 0 | 0.0 |
| 19.10.2025 | 00:56 | 4.6 | 89 | 3.0 | 1022.5 | 0.7 | N | 0 | 0.0 |
| 19.10.2025 | 01:06 | 5.1 | 87 | 3.2 | 1022.3 | 0.7 | N | 0 | 0.0 |
| 19.10.2025 | 01:16 | 4.8 | 88 | 3.0 | 1022.3 | 1.8 | NNO | 0 | 0.0 |
| 19.10.2025 | 01:26 | 4.7 | 90 | 3.1 | 1022.3 | 0.4 | N | 0 | 0.0 |
| 19.10.2025 | 01:36 | 4.9 | 89 | 3.2 | 1022.3 | 1.1 | N | 0 | 0.0 |
| 19.10.2025 | 01:46 | 4.7 | 90 | 3.2 | 1022.3 | 3.2 | NO | 0 | 0.0 |
| 19.10.2025 | 01:56 | 4.5 | 90 | 2.9 | 1022.3 | 1.4 | OSO | 0 | 0.0 |
| 19.10.2025 | 02:06 | 4.7 | 88 | 3.0 | 1022.3 | 1.8 | NNO | 0 | 0.0 |
| 19.10.2025 | 02:16 | 4.5 | 89 | 2.9 | 1022.2 | 0.7 | N | 0 | 0.0 |
| 19.10.2025 | 02:26 | 4.8 | 88 | 3.0 | 1022.1 | 1.8 | NO | 0 | 0.0 |
| 19.10.2025 | 02:36 | 4.7 | 89 | 3.0 | 1022.1 | 1.4 | N | 0 | 0.0 |
| 19.10.2025 | 02:46 | 4.4 | 90 | 2.9 | 1022.2 | 1.1 | NO | 0 | 0.0 |
| 19.10.2025 | 02:56 | 4.5 | 90 | 2.9 | 1022.1 | 1.1 | N | 0 | 0.0 |
| 19.10.2025 | 03:06 | 4.6 | 89 | 2.9 | 1021.9 | 1.8 | NNO | 0 | 0.0 |
| 19.10.2025 | 03:16 | 4.5 | 88 | 2.7 | 1021.8 | 2.2 | ONO | 0 | 0.0 |
| 19.10.2025 | 03:26 | 4.3 | 88 | 2.5 | 1022.0 | 2.2 | NNO | 0 | 0.0 |
| 19.10.2025 | 03:36 | 4.5 | 87 | 2.5 | 1021.7 | 1.8 | O | 0 | 0.0 |
| 19.10.2025 | 03:46 | 4.5 | 88 | 2.7 | 1021.4 | 3.2 | NW | 0 | 0.0 |
| 19.10.2025 | 03:56 | 4.0 | 89 | 2.3 | 1021.3 | 2.9 | NNO | 0 | 0.0 |
| 19.10.2025 | 04:06 | 4.2 | 89 | 2.5 | 1021.1 | 1.1 | NNO | 0 | 0.0 |
| 19.10.2025 | 04:16 | 4.1 | 87 | 2.2 | 1021.1 | 1.4 | NNO | 0 | 0.0 |
| 19.10.2025 | 04:26 | 4.1 | 88 | 2.3 | 1020.9 | 1.8 | N | 0 | 0.0 |
| 19.10.2025 | 04:36 | 4.0 | 88 | 2.1 | 1020.8 | 2.9 | N | 0 | 0.0 |
| 19.10.2025 | 04:46 | 4.2 | 88 | 2.4 | 1020.9 | 1.4 | NNO | 0 | 0.0 |
| 19.10.2025 | 04:56 | 4.4 | 87 | 2.4 | 1020.8 | 2.2 | NNO | 0 | 0.0 |
| 19.10.2025 | 05:06 | 4.4 | 88 | 2.6 | 1020.8 | 1.4 | NNW | 0 | 0.0 |
| 19.10.2025 | 05:16 | 4.4 | 89 | 2.7 | 1020.9 | 4.0 | N | 0 | 0.0 |
| 19.10.2025 | 05:26 | 4.5 | 88 | 2.6 | 1021.0 | 3.2 | NNO | 0 | 0.0 |
| 19.10.2025 | 05:36 | 4.5 | 86 | 2.4 | 1021.0 | 3.6 | NNO | 0 | 0.0 |
| 19.10.2025 | 05:46 | 4.5 | 86 | 2.3 | 1021.1 | 2.9 | NO | 0 | 0.0 |
| 19.10.2025 | 05:57 | 4.4 | 87 | 2.4 | 1021.1 | 2.5 | N | 0 | 0.0 |
| 19.10.2025 | 06:07 | 4.1 | 89 | 2.5 | 1021.4 | 3.2 | NNO | 0 | 0.0 |
| 19.10.2025 | 06:17 | 4.1 | 88 | 2.2 | 1021.4 | 1.4 | N | 0 | 0.0 |
| 19.10.2025 | 06:27 | 3.8 | 90 | 2.2 | 1021.6 | 2.2 | SSW | 0 | 0.0 |
| 19.10.2025 | 06:37 | 3.5 | 89 | 1.9 | 1021.5 | 2.9 | NNO | 0 | 0.0 |
| 19.10.2025 | 06:47 | 3.5 | 89 | 1.9 | 1021.6 | 1.4 | N | 0 | 0.0 |
| 19.10.2025 | 06:57 | 3.7 | 88 | 1.8 | 1021.5 | 2.2 | NNO | 0 | 0.0 |
| 19.10.2025 | 07:07 | 3.9 | 87 | 1.9 | 1021.2 | 1.1 | O | 0 | 0.0 |
| 19.10.2025 | 07:17 | 3.7 | 86 | 1.6 | 1021.2 | 2.5 | NNO | 0 | 0.0 |
| 19.10.2025 | 07:27 | 4.1 | 86 | 2.0 | 1021.1 | 0.4 | N | 0 | 0.0 |
| 19.10.2025 | 07:37 | 4.3 | 85 | 2.0 | 1020.9 | 1.1 | O | 0 | 0.0 |
| 19.10.2025 | 07:47 | 3.7 | 87 | 1.8 | 1020.9 | 1.8 | NNO | 0 | 0.0 |
| 19.10.2025 | 07:57 | 3.8 | 88 | 1.9 | 1020.9 | 1.1 | N | 3 | 0.0 |
| 19.10.2025 | 08:07 | 3.6 | 87 | 1.7 | 1021.0 | 2.2 | NO | 8 | 0.0 |
| 19.10.2025 | 08:17 | 3.5 | 88 | 1.6 | 1021.1 | 2.5 | NNO | 15 | 0.0 |
| 19.10.2025 | 08:27 | 3.6 | 87 | 1.7 | 1021.1 | 2.9 | NO | 32 | 0.0 |
| 19.10.2025 | 08:37 | 4.1 | 87 | 2.1 | 1021.0 | 1.1 | N | 43 | 0.0 |
| 19.10.2025 | 08:47 | 4.4 | 86 | 2.2 | 1020.9 | 1.4 | NNO | 62 | 0.0 |
| 19.10.2025 | 08:57 | 5.0 | 85 | 2.6 | 1020.7 | 0.7 | N | 46 | 0.0 |
| 19.10.2025 | 09:07 | 4.7 | 87 | 2.6 | 1020.5 | 1.4 | SSW | 61 | 0.0 |
| 19.10.2025 | 09:17 | 4.5 | 87 | 2.6 | 1020.4 | 1.8 | NNW | 87 | 0.0 |
| 19.10.2025 | 09:27 | 4.9 | 86 | 2.8 | 1020.1 | 1.8 | NW | 103 | 0.0 |
| 19.10.2025 | 09:37 | 5.2 | 86 | 3.1 | 1020.1 | 1.4 | SW | 92 | 0.0 |
| 19.10.2025 | 09:47 | 5.2 | 85 | 2.9 | 1019.8 | 3.6 | S | 90 | 0.0 |
| 19.10.2025 | 09:57 | 5.2 | 85 | 2.9 | 1019.7 | 3.6 | S | 90 | 0.0 |
| 19.10.2025 | 10:07 | 5.1 | 83 | 2.4 | 1019.7 | 2.9 | N | 86 | 0.0 |
| 19.10.2025 | 10:17 | 5.8 | 84 | 3.4 | 1019.3 | 1.4 | N | 146 | 0.0 |
| 19.10.2025 | 10:27 | 6.3 | 82 | 3.4 | 1019.1 | 4.7 | SSW | 236 | 0.0 |
| 19.10.2025 | 10:37 | 6.4 | 80 | 3.1 | 1018.9 | 3.2 | SSW | 145 | 0.0 |
| 19.10.2025 | 10:47 | 6.5 | 78 | 2.9 | 1018.8 | 0.4 | N | 156 | 0.0 |
| 19.10.2025 | 10:57 | 6.8 | 75 | 2.7 | 1018.7 | 2.2 | SO | 141 | 0.0 |
| 19.10.2025 | 11:08 | 6.9 | 73 | 2.3 | 1018.5 | 1.8 | S | 148 | 0.0 |
| 19.10.2025 | 11:18 | 7.4 | 72 | 2.6 | 1018.5 | 3.6 | SSW | 196 | 0.0 |
| 19.10.2025 | 11:28 | 7.3 | 72 | 2.5 | 1018.4 | 1.4 | SSW | 169 | 0.0 |
| 19.10.2025 | 11:38 | 7.8 | 74 | 3.4 | 1018.1 | 2.9 | SW | 349 | 0.0 |
| 19.10.2025 | 11:48 | 7.9 | 72 | 3.2 | 1018.0 | 4.7 | SSW | 268 | 0.0 |
| 19.10.2025 | 11:58 | 8.4 | 70 | 3.3 | 1017.8 | 5.8 | S | 307 | 0.0 |
| 19.10.2025 | 12:08 | 8.8 | 68 | 3.3 | 1017.7 | 1.8 | NO | 363 | 0.0 |
| 19.10.2025 | 12:18 | 9.7 | 69 | 4.4 | 1017.8 | 1.8 | SSW | 299 | 0.0 |
| 19.10.2025 | 12:28 | 9.7 | 67 | 3.9 | 1017.6 | 0.4 | N | 288 | 0.0 |
| 19.10.2025 | 12:38 | 9.1 | 69 | 3.7 | 1017.5 | 0.7 | N | 345 | 0.0 |
| 19.10.2025 | 12:48 | 9.3 | 71 | 4.3 | 1017.1 | 1.8 | SSW | 188 | 0.0 |
| 19.10.2025 | 12:58 | 10.4 | 68 | 4.6 | 1016.7 | 5.4 | WSW | 405 | 0.0 |
| 19.10.2025 | 13:08 | 9.7 | 70 | 4.5 | 1016.6 | 4.0 | SSW | 264 | 0.0 |
| 19.10.2025 | 13:18 | 9.6 | 74 | 5.1 | 1016.9 | 4.0 | SSW | 491 | 0.0 |
| 19.10.2025 | 13:28 | 9.9 | 71 | 5.0 | 1016.5 | 5.0 | SSW | 460 | 0.0 |
| 19.10.2025 | 13:38 | 10.4 | 71 | 5.4 | 1016.4 | 5.4 | SSW | 268 | 0.0 |
| 19.10.2025 | 13:48 | 11.4 | 68 | 5.7 | 1016.1 | 2.5 | SSW | 349 | 0.0 |
| 19.10.2025 | 13:58 | 11.4 | 66 | 5.2 | 1015.7 | 4.3 | SSW | 433 | 0.0 |
| 19.10.2025 | 14:08 | 10.4 | 70 | 5.2 | 1015.6 | 7.2 | S | 373 | 0.0 |
| 19.10.2025 | 14:18 | 10.3 | 72 | 5.5 | 1015.5 | 5.8 | SSW | 433 | 0.0 |
| 19.10.2025 | 14:28 | 10.2 | 71 | 5.2 | 1015.5 | 7.2 | S | 322 | 0.0 |
| 19.10.2025 | 14:38 | 10.4 | 70 | 5.2 | 1015.6 | 7.2 | SSW | 301 | 0.0 |
| 19.10.2025 | 14:48 | 12.4 | 65 | 6.0 | 1015.0 | 1.1 | SSW | 376 | 0.0 |
| 19.10.2025 | 14:58 | 12.3 | 63 | 5.6 | 1014.9 | 4.0 | WSW | 348 | 0.0 |
| 19.10.2025 | 15:08 | 11.5 | 66 | 5.3 | 1014.8 | 4.7 | SSW | 314 | 0.0 |
| 19.10.2025 | 15:18 | 12.6 | 63 | 5.8 | 1014.6 | 5.8 | SW | 349 | 0.0 |
| 19.10.2025 | 15:28 | 12.6 | 62 | 5.6 | 1014.4 | 2.5 | SSW | 344 | 0.0 |
| 19.10.2025 | 15:38 | 11.3 | 67 | 5.4 | 1014.5 | 5.4 | SSW | 257 | 0.0 |
| 19.10.2025 | 15:48 | 11.2 | 67 | 5.3 | 1014.7 | 2.5 | SSW | 239 | 0.0 |
| 19.10.2025 | 15:58 | 11.4 | 64 | 5.0 | 1014.5 | 2.5 | S | 259 | 0.0 |
| 19.10.2025 | 16:08 | 12.6 | 60 | 5.0 | 1014.0 | 3.6 | WSW | 219 | 0.0 |
| 19.10.2025 | 16:18 | 10.9 | 69 | 5.5 | 1014.2 | 8.3 | S | 118 | 0.0 |
| 19.10.2025 | 16:28 | 11.6 | 68 | 5.9 | 1013.8 | 2.5 | S | 125 | 0.0 |
| 19.10.2025 | 16:39 | 11.5 | 67 | 5.5 | 1013.8 | 3.2 | S | 105 | 0.0 |
| 19.10.2025 | 16:49 | 10.8 | 73 | 6.2 | 1014.0 | 8.3 | S | 96 | 0.0 |
| 19.10.2025 | 16:59 | 11.0 | 67 | 5.1 | 1014.0 | 2.2 | SSO | 79 | 0.0 |
| 19.10.2025 | 17:09 | 11.0 | 64 | 4.4 | 1013.9 | 1.1 | S | 64 | 0.0 |
| 19.10.2025 | 17:19 | 11.2 | 65 | 4.9 | 1013.7 | 4.0 | S | 57 | 0.0 |
| 19.10.2025 | 17:29 | 11.2 | 63 | 4.5 | 1013.7 | 2.2 | SSW | 43 | 0.0 |
| 19.10.2025 | 17:39 | 10.8 | 65 | 4.5 | 1013.5 | 4.0 | S | 30 | 0.0 |
| 19.10.2025 | 17:49 | 10.5 | 66 | 4.4 | 1013.6 | 2.2 | N | 21 | 0.0 |
| 19.10.2025 | 17:59 | 10.7 | 67 | 4.9 | 1013.5 | 1.8 | N | 16 | 0.0 |
| 19.10.2025 | 18:09 | 10.4 | 70 | 5.2 | 1013.7 | 2.5 | S | 12 | 0.0 |
| 19.10.2025 | 18:19 | 10.0 | 73 | 5.4 | 1014.1 | 2.9 | NNO | 6 | 0.0 |
| 19.10.2025 | 18:29 | 9.9 | 73 | 5.3 | 1014.2 | 2.5 | NNW | 2 | 0.0 |
| 19.10.2025 | 18:39 | 10.1 | 76 | 6.0 | 1014.1 | 8.6 | S | 0 | 0.0 |
| 19.10.2025 | 18:49 | 9.9 | 70 | 4.8 | 1014.1 | 4.3 | N | 0 | 0.0 |
| 19.10.2025 | 18:59 | 9.6 | 75 | 5.3 | 1014.1 | 2.9 | NNO | 0 | 0.0 |
| 19.10.2025 | 19:09 | 9.8 | 75 | 5.6 | 1013.9 | 3.6 | S | 0 | 0.0 |
| 19.10.2025 | 19:19 | 9.6 | 75 | 5.4 | 1014.1 | 1.4 | N | 0 | 0.0 |
| 19.10.2025 | 19:29 | 9.3 | 77 | 5.4 | 1014.1 | 2.5 | NNO | 0 | 0.0 |
| 19.10.2025 | 19:39 | 9.0 | 77 | 5.2 | 1014.1 | 2.2 | NNO | 0 | 0.0 |
| 19.10.2025 | 19:49 | 9.1 | 76 | 5.2 | 1014.2 | 1.4 | N | 0 | 0.0 |
| 19.10.2025 | 19:59 | 8.8 | 78 | 5.2 | 1014.0 | 3.2 | NNO | 0 | 0.0 |
| 19.10.2025 | 20:09 | 8.5 | 78 | 4.9 | 1013.9 | 1.8 | N | 0 | 0.0 |
| 19.10.2025 | 20:19 | 8.2 | 78 | 4.6 | 1013.9 | 2.5 | NNO | 0 | 0.0 |
| 19.10.2025 | 20:29 | 8.6 | 77 | 4.8 | 1014.0 | 2.2 | WSW | 0 | 0.0 |
| 19.10.2025 | 20:39 | 8.3 | 80 | 5.0 | 1014.0 | 2.5 | ONO | 0 | 0.0 |
| 19.10.2025 | 20:49 | 8.1 | 80 | 4.8 | 1013.9 | 3.2 | S | 0 | 0.0 |
| 19.10.2025 | 20:59 | 7.9 | 80 | 4.6 | 1013.8 | 1.8 | NNO | 0 | 0.0 |
| 19.10.2025 | 21:09 | 7.9 | 80 | 4.7 | 1013.7 | 1.8 | N | 0 | 0.0 |
| 19.10.2025 | 21:19 | 8.0 | 82 | 5.0 | 1013.6 | 2.5 | N | 0 | 0.0 |
| 19.10.2025 | 21:29 | 7.8 | 83 | 5.1 | 1013.9 | 4.0 | SSO | 0 | 0.0 |
| 19.10.2025 | 21:39 | 7.5 | 84 | 4.9 | 1013.9 | 1.1 | N | 0 | 0.0 |
| 19.10.2025 | 21:49 | 7.4 | 83 | 4.7 | 1013.8 | 0.7 | S | 0 | 0.0 |
| 19.10.2025 | 22:00 | 7.3 | 83 | 4.5 | 1013.5 | 1.8 | SSW | 0 | 0.0 |
| 19.10.2025 | 22:10 | 7.0 | 84 | 4.4 | 1013.7 | 3.6 | NNO | 0 | 0.0 |
| 19.10.2025 | 22:20 | 7.3 | 82 | 4.5 | 1013.5 | 0.7 | N | 0 | 0.0 |
| 19.10.2025 | 22:30 | 7.0 | 84 | 4.4 | 1013.7 | 1.1 | ONO | 0 | 0.0 |
| 19.10.2025 | 22:40 | 6.9 | 83 | 4.1 | 1013.6 | 2.9 | NO | 0 | 0.0 |
| 19.10.2025 | 22:50 | 6.8 | 82 | 3.9 | 1013.6 | 1.8 | NO | 0 | 0.0 |
| 19.10.2025 | 23:00 | 6.7 | 85 | 4.4 | 1013.5 | 2.5 | NNO | 0 | 0.0 |
| 19.10.2025 | 23:10 | 6.4 | 84 | 4.0 | 1013.4 | 1.1 | N | 0 | 0.0 |
| 19.10.2025 | 23:20 | 6.2 | 86 | 4.0 | 1013.5 | 1.8 | S | 0 | 0.0 |
| 19.10.2025 | 23:30 | 5.9 | 87 | 3.9 | 1013.5 | 3.6 | N | 0 | 0.0 |
| 19.10.2025 | 23:40 | 6.0 | 85 | 3.7 | 1013.3 | 1.4 | NNO | 0 | 0.0 |
| 19.10.2025 | 23:50 | 5.9 | 85 | 3.5 | 1013.1 | 0.4 | N | 0 | 0.0 |